KLUL/LUL METAR and TAF weather

Enter ICAO airport designator
Station Type Date Time Source
KLUL METAR 2019/02/17 15:55 UTC NOAA

KLUL 171555Z AUTO 20007KT 10SM BKN018 OVC070 22/17 A2985 RMK AO2 T02150170


Station Type Date Time Source
KLUL Decoded METAR 2019/02/17 15:55 UTC NOAA

Station name not available
Feb 17, 2019 - 10:55 AM EST / 2019.02.17 1555 UTC
Wind: from the SSW (200 degrees) at 8 MPH (7 KT):0
Visibility: 10 mile(s):0
Sky conditions: overcast
Temperature: 70.7 F (21.5 C)
Dew Point: 62.6 F (17.0 C)
Relative Humidity: 75%
Pressure (altimeter): 29.85 in. Hg (1010 hPa)
ob: KLUL 171555Z AUTO 20007KT 10SM BKN018 OVC070 22/17 A2985 RMK AO2 T02150170
cycle: 16

Station Type Date Time Source
KLUL TAF UTC NOAA

Error!


Example: see airport list